Time;durP1;ratioP1;P1;durP2;ratioP2;P2;SDS_P1;SDS_P2;PMS_P1;PMS_P2;Temp;Humidity;BMP_temperature;BMP_pressure;BME280_temperature;BME280_humidity;BME280_pressure;Samples;Min_cycle;Max_cycle;Signal;HPM_P1;HPM_P2
2023/05/30 00:04:39;;;;;;;;;;;;;;;11.77;100.00;97754.34;18547822;31;20000;-55
2023/05/30 00:14:42;;;;;;;;;;;;;;;11.59;100.00;97744.09;18562500;32;19967;-56
2023/05/30 00:24:45;;;;;;;;;;;;;;;11.37;100.00;97739.81;18547518;32;19974;-56
2023/05/30 00:34:47;;;;;;;;;;;;;;;11.14;100.00;97752.84;18547133;32;20280;-55
2023/05/30 00:44:50;;;;;;;;;;;;;;;11.00;100.00;97744.47;18546910;32;20000;-55
2023/05/30 00:54:53;;;;;;;;;;;;;;;10.89;100.00;97752.84;18560726;32;19965;-55
2023/05/30 01:04:56;;;;;;;;;;;;;;;10.77;100.00;97745.81;18560338;32;19953;-56
2023/05/30 01:15:05;;;;;;;;;;;;;;;10.69;100.00;97738.22;18546411;32;19969;-59
2023/05/30 01:25:27;;;;;;;;;;;;;;;10.66;100.00;97765.78;18560043;32;19965;-58
2023/05/30 01:35:29;;;;;;;;;;;;;;;10.60;100.00;97772.28;18559346;32;19965;-58
2023/05/30 01:45:38;;;;;;;;;;;;;;;10.56;100.00;97782.00;18559208;32;20272;-57
2023/05/30 01:55:42;;;;;;;;;;;;;;;10.48;100.00;97780.63;18558817;32;19956;-58
2023/05/30 02:05:44;;;;;;;;;;;;;;;10.42;100.00;97781.69;18568485;32;20359;-58
2023/05/30 02:15:46;;;;;;;;;;;;;;;10.33;100.00;97793.00;18569948;32;19976;-58
2023/05/30 02:25:49;;;;;;;;;;;;;;;10.27;100.00;97802.16;18569150;32;20060;-58
2023/05/30 02:35:52;;;;;;;;;;;;;;;10.19;100.00;97802.66;18554248;32;19993;-57
2023/05/30 02:45:54;;;;;;;;;;;;;;;10.14;100.00;97814.25;18567725;32;19985;-58
2023/05/30 02:55:57;;;;;;;;;;;;;;;10.14;100.00;97813.44;18567617;32;19985;-58
2023/05/30 03:05:59;;;;;;;;;;;;;;;10.12;100.00;97821.81;18552332;32;20364;-58
2023/05/30 03:16:02;;;;;;;;;;;;;;;10.08;100.00;97820.72;18565658;32;19979;-58
2023/05/30 03:26:06;;;;;;;;;;;;;;;10.04;100.00;97843.91;18565417;32;19959;-58
2023/05/30 03:36:10;;;;;;;;;;;;;;;10.03;100.00;97846.88;18564856;32;20363;-57
2023/05/30 03:46:16;;;;;;;;;;;;;;;9.99;100.00;97852.81;18563722;32;19959;-56
2023/05/30 03:56:18;;;;;;;;;;;;;;;10.01;100.00;97857.97;18563744;32;19979;-58
2023/05/30 04:06:20;;;;;;;;;;;;;;;10.07;100.00;97859.63;18562809;32;19944;-58
2023/05/30 04:16:23;;;;;;;;;;;;;;;10.15;100.00;97869.09;18548243;32;19970;-58
2023/05/30 04:26:26;;;;;;;;;;;;;;;10.27;100.00;97874.31;18561482;32;19945;-58
2023/05/30 04:36:32;;;;;;;;;;;;;;;10.41;100.00;97874.66;18561411;32;19956;-58
2023/05/30 04:46:36;;;;;;;;;;;;;;;10.63;100.00;97886.12;18561068;32;19975;-58
2023/05/30 04:56:39;;;;;;;;;;;;;;;10.89;100.00;97888.09;18560900;32;20265;-58
2023/05/30 05:06:42;;;;;;;;;;;;;;;11.29;100.00;97919.84;18560600;32;19995;-58
2023/05/30 05:16:44;;;;;;;;;;;;;;;11.74;100.00;97912.00;18560335;32;20286;-58
2023/05/30 05:26:47;;;;;;;;;;;;;;;12.31;100.00;97926.31;18559847;32;19960;-58
2023/05/30 05:36:49;;;;;;;;;;;;;;;12.84;100.00;97938.62;18566617;32;20034;-58
2023/05/30 05:46:52;;;;;;;;;;;;;;;13.27;100.00;97940.88;18571878;32;19944;-59
2023/05/30 05:56:55;;;;;;;;;;;;;;;13.59;100.00;97951.25;18571398;32;19971;-59
2023/05/30 06:06:58;;;;;;;;;;;;;;;13.90;100.00;97961.91;18570315;32;20314;-59
2023/05/30 06:17:01;;;;;;;;;;;;;;;14.23;100.00;97964.88;18569799;32;20000;-59
2023/05/30 06:27:05;;;;;;;;;;;;;;;14.62;100.00;97965.84;18541589;31;19956;-59
2023/05/30 06:37:10;;;;;;;;;;;;;;;15.08;100.00;97978.94;18568734;32;19989;-59
2023/05/30 06:47:13;;;;;;;;;;;;;;;15.55;100.00;97985.41;18567253;32;20004;-59
2023/05/30 06:57:16;;;;;;;;;;;;;;;15.98;100.00;97994.56;18567301;32;19964;-59
2023/05/30 07:07:20;;;;;;;;;;;;;;;16.37;100.00;97988.72;18566504;32;20269;-59
2023/05/30 07:17:23;;;;;;;;;;;;;;;16.85;100.00;97987.56;18565891;32;19973;-59
2023/05/30 07:27:26;;;;;;;;;;;;;;;17.21;100.00;97994.25;18565642;32;19952;-59
2023/05/30 07:37:30;;;;;;;;;;;;;;;17.44;100.00;97989.66;18564377;32;19983;-59
2023/05/30 07:47:34;;;;;;;;;;;;;;;17.91;100.00;97976.59;18564173;32;19990;-59
2023/05/30 07:57:36;;;;;;;;;;;;;;;18.17;100.00;97988.81;18562904;32;20269;-59
2023/05/30 08:07:39;;;;;;;;;;;;;;;18.26;100.00;97976.78;18548533;32;20393;-59
2023/05/30 08:17:43;;;;;;;;;;;;;;;18.58;94.27;97987.75;18562151;31;19952;-59
2023/05/30 08:27:47;;;;;;;;;;;;;;;19.04;93.58;97980.25;18547765;32;19949;-56
2023/05/30 08:37:51;;;;;;;;;;;;;;;19.30;84.87;97986.56;18561854;32;19983;-55
2023/05/30 08:47:55;;;;;;;;;;;;;;;19.74;86.07;97983.88;18561261;32;19968;-56
2023/05/30 08:58:04;;;;;;;;;;;;;;;20.27;82.49;97983.88;18561090;32;19964;-55
2023/05/30 09:08:08;;;;;;;;;;;;;;;20.52;76.37;97984.94;18548821;31;19996;-55
2023/05/30 09:18:12;;;;;;;;;;;;;;;21.10;79.06;97976.28;18573281;32;19952;-56
2023/05/30 09:28:22;;;;;;;;;;;;;;;21.45;73.35;97976.88;18572576;32;19944;-55
2023/05/30 09:38:25;;;;;;;;;;;;;;;21.40;70.59;97977.06;18571919;32;19957;-55
2023/05/30 09:48:28;;;;;;;;;;;;;;;21.66;76.00;97971.41;18571834;32;19975;-55
2023/05/30 09:58:32;;;;;;;;;;;;;;;22.06;70.04;97981.09;18570965;32;19992;-56
2023/05/30 10:08:35;;;;;;;;;;;;;;;22.27;68.44;97969.22;18569910;31;19952;-56
2023/05/30 10:18:42;;;;;;;;;;;;;;;22.65;70.93;97974.53;18569071;32;19964;-56
2023/05/30 10:28:51;;;;;;;;;;;;;;;22.84;64.60;97971.22;18569293;32;20283;-56
2023/05/30 10:39:08;;;;;;;;;;;;;;;22.87;62.73;97966.94;18489306;32;19957;-56
2023/05/30 10:49:18;;;;;;;;;;;;;;;23.06;59.33;97962.81;18502923;32;19952;-55
2023/05/30 10:59:22;;;;;;;;;;;;;;;23.34;64.26;97954.66;18502168;32;19967;-56
2023/05/30 11:09:26;;;;;;;;;;;;;;;23.46;58.72;97942.78;18501709;32;20270;-55
2023/05/30 11:19:37;;;;;;;;;;;;;;;23.90;58.84;97942.91;18501159;32;20001;-55
2023/05/30 11:29:43;;;;;;;;;;;;;;;24.36;54.02;97940.56;18490931;31;19975;-56
2023/05/30 11:39:46;;;;;;;;;;;;;;;24.62;57.69;97917.16;18550369;32;20324;-55
2023/05/30 11:49:53;;;;;;;;;;;;;;;25.19;56.02;97909.41;18564124;32;19956;-55
2023/05/30 11:59:58;;;;;;;;;;;;;;;25.40;53.56;97890.91;18563305;31;19952;-55
2023/05/30 12:10:02;;;;;;;;;;;;;;;26.01;51.58;97875.47;18548996;32;20026;-54
2023/05/30 12:20:09;;;;;;;;;;;;;;;26.50;52.55;97871.19;18562515;32;20017;-55
2023/05/30 12:30:18;;;;;;;;;;;;;;;26.55;50.56;97871.69;18561851;32;20078;-55
2023/05/30 12:40:25;;;;;;;;;;;;;;;26.98;50.73;97866.00;18547559;32;19968;-55
2023/05/30 12:50:30;;;;;;;;;;;;;;;27.62;49.16;97856.94;18546380;31;19956;-56
2023/05/30 13:00:34;;;;;;;;;;;;;;;27.75;45.57;97863.06;18560944;32;19953;-56
2023/05/30 13:10:39;;;;;;;;;;;;;;;28.53;45.19;97853.06;18560595;32;19993;-56
2023/05/30 13:20:42;;;;;;;;;;;;;;;28.86;43.79;97848.56;18559992;32;19948;-56
2023/05/30 13:30:46;;;;;;;;;;;;;;;29.21;43.49;97845.16;18559645;32;20007;-55
2023/05/30 13:40:50;;;;;;;;;;;;;;;29.36;39.13;97829.34;18559842;32;19952;-56
2023/05/30 13:50:53;;;;;;;;;;;;;;;29.89;44.29;97827.94;18559031;32;19990;-57
2023/05/30 14:00:56;;;;;;;;;;;;;;;30.18;39.48;97816.81;18569251;32;20302;-57
2023/05/30 14:11:00;;;;;;;;;;;;;;;30.42;40.23;97811.63;18570603;32;20320;-57
2023/05/30 14:21:11;;;;;;;;;;;;;;;30.03;35.83;97809.66;18569653;32;19956;-55
2023/05/30 14:31:15;;;;;;;;;;;;;;;29.67;38.47;97801.19;18554988;31;19964;-55
2023/05/30 14:41:18;;;;;;;;;;;;;;;30.36;36.19;97794.50;18568388;31;19992;-54
2023/05/30 14:51:22;;;;;;;;;;;;;;;30.43;37.44;97783.31;18567976;32;19964;-56
2023/05/30 15:01:26;;;;;;;;;;;;;;;29.35;38.21;97777.63;18567702;32;19972;-56
2023/05/30 15:11:47;;;;;;;;;;;;;;;28.39;41.76;97773.91;18566642;32;20287;-56
2023/05/30 15:21:50;;;;;;;;;;;;;;;28.58;41.09;97775.59;18565877;32;19967;-54
2023/05/30 15:31:53;;;;;;;;;;;;;;;28.13;41.40;97762.97;18565051;31;19956;-53
2023/05/30 15:41:57;;;;;;;;;;;;;;;27.18;40.15;97749.31;18564821;32;20351;-56
2023/05/30 15:52:01;;;;;;;;;;;;;;;26.55;38.66;97737.78;18549904;32;19996;-53
2023/05/30 16:02:06;;;;;;;;;;;;;;;26.50;40.91;97724.25;18549230;32;20289;-54
2023/05/30 16:12:20;;;;;;;;;;;;;;;26.62;41.15;97721.25;18563117;32;20318;-54
2023/05/30 16:22:32;;;;;;;;;;;;;;;25.77;41.87;97730.63;18548964;32;20310;-52
2023/05/30 16:32:35;;;;;;;;;;;;;;;25.59;39.97;97710.16;18561437;31;19962;-53
2023/05/30 16:42:40;;;;;;;;;;;;;;;25.45;40.80;97705.13;18561725;32;20309;-54
2023/05/30 16:52:43;;;;;;;;;;;;;;;26.03;40.47;97713.25;18561077;32;19961;-55
2023/05/30 17:02:51;;;;;;;;;;;;;;;25.17;42.14;97712.53;18561012;32;19964;-55
2023/05/30 17:12:54;;;;;;;;;;;;;;;24.74;43.64;97705.34;18560475;32;19960;-54
2023/05/30 17:22:57;;;;;;;;;;;;;;;24.32;43.53;97696.50;18559996;32;19957;-52
2023/05/30 17:33:01;;;;;;;;;;;;;;;23.88;44.59;97713.25;18567381;31;20333;-55
2023/05/30 17:43:04;;;;;;;;;;;;;;;23.37;46.63;97708.41;18571944;32;19965;-54
2023/05/30 17:53:08;;;;;;;;;;;;;;;23.08;46.33;97715.88;18571638;32;19944;-51
2023/05/30 18:03:13;;;;;;;;;;;;;;;22.91;46.90;97721.69;18557080;32;20316;-50
2023/05/30 18:13:17;;;;;;;;;;;;;;;22.81;47.33;97723.78;18570267;31;19966;-53
2023/05/30 18:23:20;;;;;;;;;;;;;;;22.61;48.05;97722.81;18570213;32;20001;-53
2023/05/30 18:33:23;;;;;;;;;;;;;;;22.40;47.87;97727.69;18554611;31;20063;-54
2023/05/30 18:43:26;;;;;;;;;;;;;;;22.19;47.35;97750.63;18553675;32;19989;-52
2023/05/30 18:53:29;;;;;;;;;;;;;;;22.02;49.21;97742.59;18568040;32;20260;-53
2023/05/30 19:03:32;;;;;;;;;;;;;;;21.73;49.62;97755.41;18567332;32;20015;-53
2023/05/30 19:13:37;;;;;;;;;;;;;;;21.36;52.11;97752.56;18566761;32;19967;-53
2023/05/30 19:23:40;;;;;;;;;;;;;;;21.09;51.42;97765.72;18552278;32;19961;-54
2023/05/30 19:33:43;;;;;;;;;;;;;;;20.66;54.62;97764.91;18551152;31;19975;-53
2023/05/30 19:43:46;;;;;;;;;;;;;;;20.23;59.76;97768.75;18564673;32;19968;-53
2023/05/30 19:53:48;;;;;;;;;;;;;;;19.67;70.31;97783.31;18564091;32;19961;-53
2023/05/30 20:03:51;;;;;;;;;;;;;;;19.07;79.06;97790.50;18549140;31;19989;-54
2023/05/30 20:13:54;;;;;;;;;;;;;;;18.55;84.10;97807.66;18548121;32;19965;-53
2023/05/30 20:23:57;;;;;;;;;;;;;;;18.08;90.09;97803.50;18548568;32;19952;-53
2023/05/30 20:34:01;;;;;;;;;;;;;;;17.59;96.49;97811.59;18561859;32;19971;-53
2023/05/30 20:44:04;;;;;;;;;;;;;;;17.22;100.00;97812.81;18561602;32;19961;-53
2023/05/30 20:54:06;;;;;;;;;;;;;;;16.83;100.00;97816.94;18561529;32;20007;-52
2023/05/30 21:04:09;;;;;;;;;;;;;;;16.45;100.00;97812.56;18563361;32;20011;-53
2023/05/30 21:14:13;;;;;;;;;;;;;;;16.05;100.00;97809.56;18573815;32;19965;-54
2023/05/30 21:24:16;;;;;;;;;;;;;;;15.68;100.00;97816.75;18573129;32;19960;-49
2023/05/30 21:34:18;;;;;;;;;;;;;;;15.37;100.00;97817.25;18572463;32;19987;-50
2023/05/30 21:44:21;;;;;;;;;;;;;;;15.12;100.00;97822.00;18572184;32;20287;-54
2023/05/30 21:54:34;;;;;;;;;;;;;;;14.91;100.00;97824.25;18571466;32;19987;-52
2023/05/30 22:04:38;;;;;;;;;;;;;;;14.71;100.00;97825.31;18570971;32;19979;-53
2023/05/30 22:14:40;;;;;;;;;;;;;;;14.62;100.00;97817.00;18555372;32;19956;-53
2023/05/30 22:24:43;;;;;;;;;;;;;;;14.53;100.00;97818.75;18569459;32;19993;-53
2023/05/30 22:34:46;;;;;;;;;;;;;;;14.39;100.00;97811.28;18568892;32;19956;-53
2023/05/30 22:44:48;;;;;;;;;;;;;;;14.27;100.00;97796.50;18568400;32;20376;-54
2023/05/30 22:54:51;;;;;;;;;;;;;;;14.19;100.00;97792.50;18567852;32;20013;-53
2023/05/30 23:04:53;;;;;;;;;;;;;;;13.99;100.00;97797.09;18567129;32;19965;-52
2023/05/30 23:14:56;;;;;;;;;;;;;;;13.82;100.00;97785.84;18566633;32;19972;-53
2023/05/30 23:24:58;;;;;;;;;;;;;;;13.63;100.00;97791.19;18565873;32;20003;-53
2023/05/30 23:35:03;;;;;;;;;;;;;;;13.47;100.00;97785.94;18551161;32;20321;-53
2023/05/30 23:45:06;;;;;;;;;;;;;;;13.23;100.00;97780.41;18564645;32;19963;-54
2023/05/30 23:55:08;;;;;;;;;;;;;;;13.06;100.00;97769.97;18564554;32;19975;-53
